sensor_id;sensor_type;location;lat;lon;timestamp;P1;durP1;ratioP1;P2;durP2;ratioP2
59728;SDS011;45588;51.598;5.618;2023-08-12T00:02:22;55.80;;;38.95;;
59728;SDS011;45588;51.598;5.618;2023-08-12T00:04:48;47.27;;;38.60;;
59728;SDS011;45588;51.598;5.618;2023-08-12T00:07:13;51.40;;;38.55;;
59728;SDS011;45588;51.598;5.618;2023-08-12T00:09:38;61.20;;;42.57;;
59728;SDS011;45588;51.598;5.618;2023-08-12T00:12:03;54.10;;;40.97;;
59728;SDS011;45588;51.598;5.618;2023-08-12T00:14:32;60.92;;;41.45;;
59728;SDS011;45588;51.598;5.618;2023-08-12T00:16:57;57.30;;;39.85;;
59728;SDS011;45588;51.598;5.618;2023-08-12T00:19:22;65.05;;;40.42;;
59728;SDS011;45588;51.598;5.618;2023-08-12T00:21:47;60.93;;;41.17;;
59728;SDS011;45588;51.598;5.618;2023-08-12T00:24:12;58.17;;;40.47;;
59728;SDS011;45588;51.598;5.618;2023-08-12T00:26:38;57.93;;;42.13;;
59728;SDS011;45588;51.598;5.618;2023-08-12T00:29:03;57.90;;;42.03;;
59728;SDS011;45588;51.598;5.618;2023-08-12T00:31:28;58.07;;;43.40;;
59728;SDS011;45588;51.598;5.618;2023-08-12T00:33:53;60.20;;;43.57;;
59728;SDS011;45588;51.598;5.618;2023-08-12T00:36:19;64.60;;;44.40;;
59728;SDS011;45588;51.598;5.618;2023-08-12T00:38:44;65.60;;;45.53;;
59728;SDS011;45588;51.598;5.618;2023-08-12T00:41:09;71.67;;;48.30;;
59728;SDS011;45588;51.598;5.618;2023-08-12T00:43:34;59.60;;;46.20;;
59728;SDS011;45588;51.598;5.618;2023-08-12T00:45:59;62.42;;;45.80;;
59728;SDS011;45588;51.598;5.618;2023-08-12T00:48:25;63.30;;;47.47;;
59728;SDS011;45588;51.598;5.618;2023-08-12T00:50:50;55.20;;;44.60;;
59728;SDS011;45588;51.598;5.618;2023-08-12T00:53:16;59.55;;;43.78;;
59728;SDS011;45588;51.598;5.618;2023-08-12T00:55:41;57.70;;;47.13;;
59728;SDS011;45588;51.598;5.618;2023-08-12T00:58:07;63.92;;;50.90;;
59728;SDS011;45588;51.598;5.618;2023-08-12T01:00:32;67.85;;;50.95;;
59728;SDS011;45588;51.598;5.618;2023-08-12T01:02:58;68.03;;;49.63;;
59728;SDS011;45588;51.598;5.618;2023-08-12T01:05:25;63.78;;;50.95;;
59728;SDS011;45588;51.598;5.618;2023-08-12T01:07:50;66.70;;;51.80;;
59728;SDS011;45588;51.598;5.618;2023-08-12T01:10:15;73.28;;;53.05;;
59728;SDS011;45588;51.598;5.618;2023-08-12T01:12:44;72.38;;;52.58;;
59728;SDS011;45588;51.598;5.618;2023-08-12T01:15:17;69.75;;;52.78;;
59728;SDS011;45588;51.598;5.618;2023-08-12T01:17:45;72.00;;;53.88;;
59728;SDS011;45588;51.598;5.618;2023-08-12T01:20:13;74.50;;;51.88;;
59728;SDS011;45588;51.598;5.618;2023-08-12T01:22:39;74.45;;;56.53;;
59728;SDS011;45588;51.598;5.618;2023-08-12T01:25:05;78.35;;;55.92;;
59728;SDS011;45588;51.598;5.618;2023-08-12T01:27:31;79.13;;;55.55;;
59728;SDS011;45588;51.598;5.618;2023-08-12T01:29:56;71.53;;;53.35;;
59728;SDS011;45588;51.598;5.618;2023-08-12T01:32:26;71.72;;;55.15;;
59728;SDS011;45588;51.598;5.618;2023-08-12T01:35:58;69.97;;;53.65;;
59728;SDS011;45588;51.598;5.618;2023-08-12T01:37:50;72.35;;;54.88;;
59728;SDS011;45588;51.598;5.618;2023-08-12T01:40:16;76.90;;;55.53;;
59728;SDS011;45588;51.598;5.618;2023-08-12T01:42:41;74.20;;;54.25;;
59728;SDS011;45588;51.598;5.618;2023-08-12T01:45:07;78.47;;;54.35;;
59728;SDS011;45588;51.598;5.618;2023-08-12T01:47:32;80.03;;;55.72;;
59728;SDS011;45588;51.598;5.618;2023-08-12T01:49:57;73.57;;;55.45;;
59728;SDS011;45588;51.598;5.618;2023-08-12T01:52:23;70.63;;;55.03;;
59728;SDS011;45588;51.598;5.618;2023-08-12T01:54:48;73.03;;;54.03;;
59728;SDS011;45588;51.598;5.618;2023-08-12T01:57:13;70.47;;;52.20;;
59728;SDS011;45588;51.598;5.618;2023-08-12T01:59:38;65.70;;;51.13;;
59728;SDS011;45588;51.598;5.618;2023-08-12T02:02:04;64.63;;;49.53;;
59728;SDS011;45588;51.598;5.618;2023-08-12T02:04:29;67.18;;;48.33;;
59728;SDS011;45588;51.598;5.618;2023-08-12T02:06:54;64.47;;;48.58;;
59728;SDS011;45588;51.598;5.618;2023-08-12T02:09:20;64.05;;;48.58;;
59728;SDS011;45588;51.598;5.618;2023-08-12T02:11:45;63.92;;;46.83;;
59728;SDS011;45588;51.598;5.618;2023-08-12T02:14:11;60.80;;;44.83;;
59728;SDS011;45588;51.598;5.618;2023-08-12T02:16:36;65.30;;;44.60;;
59728;SDS011;45588;51.598;5.618;2023-08-12T02:19:01;55.28;;;43.88;;
59728;SDS011;45588;51.598;5.618;2023-08-12T02:21:26;59.40;;;42.50;;
59728;SDS011;45588;51.598;5.618;2023-08-12T02:23:52;52.70;;;40.47;;
59728;SDS011;45588;51.598;5.618;2023-08-12T02:26:17;54.40;;;39.87;;
59728;SDS011;45588;51.598;5.618;2023-08-12T02:28:42;52.90;;;38.03;;
59728;SDS011;45588;51.598;5.618;2023-08-12T02:31:07;47.10;;;36.47;;
59728;SDS011;45588;51.598;5.618;2023-08-12T02:33:32;44.83;;;37.10;;
59728;SDS011;45588;51.598;5.618;2023-08-12T02:35:58;50.77;;;36.67;;
59728;SDS011;45588;51.598;5.618;2023-08-12T02:38:23;52.60;;;36.87;;
59728;SDS011;45588;51.598;5.618;2023-08-12T02:40:48;45.67;;;34.50;;
59728;SDS011;45588;51.598;5.618;2023-08-12T02:43:14;43.25;;;34.67;;
59728;SDS011;45588;51.598;5.618;2023-08-12T02:45:39;51.20;;;35.08;;
59728;SDS011;45588;51.598;5.618;2023-08-12T02:48:05;45.58;;;35.28;;
59728;SDS011;45588;51.598;5.618;2023-08-12T02:50:30;45.80;;;34.95;;
59728;SDS011;45588;51.598;5.618;2023-08-12T02:52:55;43.03;;;34.50;;
59728;SDS011;45588;51.598;5.618;2023-08-12T02:55:20;50.10;;;35.50;;
59728;SDS011;45588;51.598;5.618;2023-08-12T02:57:45;46.87;;;35.43;;
59728;SDS011;45588;51.598;5.618;2023-08-12T03:00:11;44.53;;;34.90;;
59728;SDS011;45588;51.598;5.618;2023-08-12T03:02:37;49.25;;;34.72;;
59728;SDS011;45588;51.598;5.618;2023-08-12T03:05:02;45.53;;;34.73;;
59728;SDS011;45588;51.598;5.618;2023-08-12T03:07:27;45.78;;;34.20;;
59728;SDS011;45588;51.598;5.618;2023-08-12T03:09:53;48.67;;;34.00;;
59728;SDS011;45588;51.598;5.618;2023-08-12T03:12:18;44.80;;;33.58;;
59728;SDS011;45588;51.598;5.618;2023-08-12T03:14:44;42.83;;;33.53;;
59728;SDS011;45588;51.598;5.618;2023-08-12T03:17:09;45.30;;;34.53;;
59728;SDS011;45588;51.598;5.618;2023-08-12T03:19:34;42.15;;;34.67;;
59728;SDS011;45588;51.598;5.618;2023-08-12T03:21:59;42.67;;;33.40;;
59728;SDS011;45588;51.598;5.618;2023-08-12T03:24:24;47.33;;;33.42;;
59728;SDS011;45588;51.598;5.618;2023-08-12T03:26:50;42.25;;;33.78;;
59728;SDS011;45588;51.598;5.618;2023-08-12T03:29:15;42.90;;;31.47;;
59728;SDS011;45588;51.598;5.618;2023-08-12T03:31:40;39.20;;;30.37;;
59728;SDS011;45588;51.598;5.618;2023-08-12T03:34:05;40.33;;;30.27;;
59728;SDS011;45588;51.598;5.618;2023-08-12T03:36:30;42.33;;;31.60;;
59728;SDS011;45588;51.598;5.618;2023-08-12T03:38:56;42.03;;;29.17;;
59728;SDS011;45588;51.598;5.618;2023-08-12T03:41:21;37.80;;;28.17;;
59728;SDS011;45588;51.598;5.618;2023-08-12T03:43:46;36.72;;;28.02;;
59728;SDS011;45588;51.598;5.618;2023-08-12T03:46:11;39.20;;;27.73;;
59728;SDS011;45588;51.598;5.618;2023-08-12T03:48:36;40.07;;;28.60;;
59728;SDS011;45588;51.598;5.618;2023-08-12T03:51:01;41.00;;;28.57;;
59728;SDS011;45588;51.598;5.618;2023-08-12T03:53:27;41.57;;;27.87;;
59728;SDS011;45588;51.598;5.618;2023-08-12T03:55:52;39.80;;;26.83;;
59728;SDS011;45588;51.598;5.618;2023-08-12T03:58:17;35.73;;;25.77;;
59728;SDS011;45588;51.598;5.618;2023-08-12T04:00:42;40.65;;;26.27;;
59728;SDS011;45588;51.598;5.618;2023-08-12T04:03:08;35.13;;;25.55;;
59728;SDS011;45588;51.598;5.618;2023-08-12T04:05:33;30.33;;;22.27;;
59728;SDS011;45588;51.598;5.618;2023-08-12T04:07:59;30.20;;;22.03;;
59728;SDS011;45588;51.598;5.618;2023-08-12T04:10:24;26.43;;;21.13;;
59728;SDS011;45588;51.598;5.618;2023-08-12T04:12:50;28.73;;;18.58;;
59728;SDS011;45588;51.598;5.618;2023-08-12T04:15:15;28.60;;;18.83;;
59728;SDS011;45588;51.598;5.618;2023-08-12T04:17:40;30.00;;;18.52;;
59728;SDS011;45588;51.598;5.618;2023-08-12T04:20:06;24.33;;;18.73;;
59728;SDS011;45588;51.598;5.618;2023-08-12T04:22:31;22.90;;;18.45;;
59728;SDS011;45588;51.598;5.618;2023-08-12T04:24:57;25.30;;;19.10;;
59728;SDS011;45588;51.598;5.618;2023-08-12T04:27:22;28.30;;;20.73;;
59728;SDS011;45588;51.598;5.618;2023-08-12T04:29:47;26.20;;;21.17;;
59728;SDS011;45588;51.598;5.618;2023-08-12T04:32:12;32.72;;;21.80;;
59728;SDS011;45588;51.598;5.618;2023-08-12T04:34:38;35.87;;;23.90;;
59728;SDS011;45588;51.598;5.618;2023-08-12T04:37:03;33.83;;;23.50;;
59728;SDS011;45588;51.598;5.618;2023-08-12T04:39:28;29.58;;;22.52;;
59728;SDS011;45588;51.598;5.618;2023-08-12T04:41:53;36.53;;;23.95;;
59728;SDS011;45588;51.598;5.618;2023-08-12T04:44:18;30.60;;;22.98;;
59728;SDS011;45588;51.598;5.618;2023-08-12T04:46:44;27.70;;;22.17;;
59728;SDS011;45588;51.598;5.618;2023-08-12T04:49:09;34.87;;;24.83;;
59728;SDS011;45588;51.598;5.618;2023-08-12T04:51:34;29.67;;;23.63;;
59728;SDS011;45588;51.598;5.618;2023-08-12T04:53:59;32.72;;;22.98;;
59728;SDS011;45588;51.598;5.618;2023-08-12T04:56:26;32.08;;;23.25;;
59728;SDS011;45588;51.598;5.618;2023-08-12T04:58:54;29.88;;;23.90;;
59728;SDS011;45588;51.598;5.618;2023-08-12T05:01:19;27.50;;;22.73;;
59728;SDS011;45588;51.598;5.618;2023-08-12T05:03:44;30.40;;;23.93;;
59728;SDS011;45588;51.598;5.618;2023-08-12T05:06:09;33.85;;;24.95;;
59728;SDS011;45588;51.598;5.618;2023-08-12T05:08:34;34.17;;;25.50;;
59728;SDS011;45588;51.598;5.618;2023-08-12T05:10:59;35.00;;;28.13;;
59728;SDS011;45588;51.598;5.618;2023-08-12T05:13:25;37.30;;;28.23;;
59728;SDS011;45588;51.598;5.618;2023-08-12T05:15:50;37.13;;;27.98;;
59728;SDS011;45588;51.598;5.618;2023-08-12T05:18:15;36.80;;;26.38;;
59728;SDS011;45588;51.598;5.618;2023-08-12T05:20:41;43.78;;;27.83;;
59728;SDS011;45588;51.598;5.618;2023-08-12T05:23:06;39.63;;;26.45;;
59728;SDS011;45588;51.598;5.618;2023-08-12T05:25:32;34.75;;;23.35;;
59728;SDS011;45588;51.598;5.618;2023-08-12T05:27:57;33.05;;;25.58;;
59728;SDS011;45588;51.598;5.618;2023-08-12T05:30:22;31.45;;;24.15;;
59728;SDS011;45588;51.598;5.618;2023-08-12T05:32:47;30.63;;;20.60;;
59728;SDS011;45588;51.598;5.618;2023-08-12T05:35:13;27.80;;;20.15;;
59728;SDS011;45588;51.598;5.618;2023-08-12T05:37:38;24.50;;;18.30;;
59728;SDS011;45588;51.598;5.618;2023-08-12T05:40:03;25.97;;;18.87;;
59728;SDS011;45588;51.598;5.618;2023-08-12T05:42:33;25.38;;;19.48;;
59728;SDS011;45588;51.598;5.618;2023-08-12T05:44:58;23.02;;;19.58;;
59728;SDS011;45588;51.598;5.618;2023-08-12T05:47:23;26.20;;;19.75;;
59728;SDS011;45588;51.598;5.618;2023-08-12T05:49:48;24.50;;;20.53;;
59728;SDS011;45588;51.598;5.618;2023-08-12T05:52:14;27.92;;;19.63;;
59728;SDS011;45588;51.598;5.618;2023-08-12T05:54:39;27.23;;;18.70;;
59728;SDS011;45588;51.598;5.618;2023-08-12T05:57:04;26.60;;;18.20;;
59728;SDS011;45588;51.598;5.618;2023-08-12T05:59:29;21.70;;;17.42;;
59728;SDS011;45588;51.598;5.618;2023-08-12T06:01:54;20.98;;;16.98;;
59728;SDS011;45588;51.598;5.618;2023-08-12T06:04:20;18.20;;;16.40;;
59728;SDS011;45588;51.598;5.618;2023-08-12T06:06:45;19.13;;;15.63;;
59728;SDS011;45588;51.598;5.618;2023-08-12T06:09:10;17.73;;;15.90;;
59728;SDS011;45588;51.598;5.618;2023-08-12T06:11:35;19.90;;;15.23;;
59728;SDS011;45588;51.598;5.618;2023-08-12T06:14:00;21.50;;;15.57;;
59728;SDS011;45588;51.598;5.618;2023-08-12T06:16:25;17.20;;;14.53;;
59728;SDS011;45588;51.598;5.618;2023-08-12T06:18:51;16.15;;;13.98;;
59728;SDS011;45588;51.598;5.618;2023-08-12T06:21:17;16.08;;;13.90;;
59728;SDS011;45588;51.598;5.618;2023-08-12T06:23:42;16.87;;;13.90;;
59728;SDS011;45588;51.598;5.618;2023-08-12T06:26:08;16.95;;;14.48;;
59728;SDS011;45588;51.598;5.618;2023-08-12T06:28:33;16.38;;;13.70;;
59728;SDS011;45588;51.598;5.618;2023-08-12T06:30:58;15.70;;;13.30;;
59728;SDS011;45588;51.598;5.618;2023-08-12T06:33:23;14.10;;;12.70;;
59728;SDS011;45588;51.598;5.618;2023-08-12T06:35:49;17.20;;;13.27;;
59728;SDS011;45588;51.598;5.618;2023-08-12T06:38:15;17.15;;;12.90;;
59728;SDS011;45588;51.598;5.618;2023-08-12T06:40:40;14.23;;;12.57;;
59728;SDS011;45588;51.598;5.618;2023-08-12T06:43:06;15.27;;;11.82;;
59728;SDS011;45588;51.598;5.618;2023-08-12T06:45:32;13.23;;;11.80;;
59728;SDS011;45588;51.598;5.618;2023-08-12T06:47:57;12.57;;;11.25;;
59728;SDS011;45588;51.598;5.618;2023-08-12T06:50:23;12.63;;;11.30;;
59728;SDS011;45588;51.598;5.618;2023-08-12T06:52:48;12.97;;;11.63;;
59728;SDS011;45588;51.598;5.618;2023-08-12T06:55:13;12.57;;;11.27;;
59728;SDS011;45588;51.598;5.618;2023-08-12T06:57:38;10.70;;;9.70;;
59728;SDS011;45588;51.598;5.618;2023-08-12T07:00:04;11.48;;;10.38;;
59728;SDS011;45588;51.598;5.618;2023-08-12T07:02:30;10.98;;;9.38;;
59728;SDS011;45588;51.598;5.618;2023-08-12T07:04:55;9.43;;;8.55;;
59728;SDS011;45588;51.598;5.618;2023-08-12T07:07:20;9.83;;;8.93;;
59728;SDS011;45588;51.598;5.618;2023-08-12T07:09:45;10.77;;;9.43;;
59728;SDS011;45588;51.598;5.618;2023-08-12T07:12:11;10.40;;;9.40;;
59728;SDS011;45588;51.598;5.618;2023-08-12T07:14:36;10.87;;;9.77;;
59728;SDS011;45588;51.598;5.618;2023-08-12T07:17:01;10.02;;;9.15;;
59728;SDS011;45588;51.598;5.618;2023-08-12T07:19:26;10.87;;;9.77;;
59728;SDS011;45588;51.598;5.618;2023-08-12T07:21:51;10.67;;;9.60;;
59728;SDS011;45588;51.598;5.618;2023-08-12T07:24:17;10.30;;;9.13;;
59728;SDS011;45588;51.598;5.618;2023-08-12T07:26:42;10.18;;;9.27;;
59728;SDS011;45588;51.598;5.618;2023-08-12T07:29:07;9.33;;;8.53;;
59728;SDS011;45588;51.598;5.618;2023-08-12T07:31:32;10.35;;;9.45;;
59728;SDS011;45588;51.598;5.618;2023-08-12T07:33:58;9.50;;;8.63;;
59728;SDS011;45588;51.598;5.618;2023-08-12T07:36:23;10.73;;;9.63;;
59728;SDS011;45588;51.598;5.618;2023-08-12T07:38:48;11.67;;;10.63;;
59728;SDS011;45588;51.598;5.618;2023-08-12T07:41:13;11.47;;;10.40;;
59728;SDS011;45588;51.598;5.618;2023-08-12T07:43:38;11.93;;;10.73;;
59728;SDS011;45588;51.598;5.618;2023-08-12T07:46:04;12.57;;;11.50;;
59728;SDS011;45588;51.598;5.618;2023-08-12T07:48:29;12.80;;;10.93;;
59728;SDS011;45588;51.598;5.618;2023-08-12T07:50:56;12.52;;;11.52;;
59728;SDS011;45588;51.598;5.618;2023-08-12T07:53:21;13.15;;;11.95;;
59728;SDS011;45588;51.598;5.618;2023-08-12T07:55:46;13.53;;;12.40;;
59728;SDS011;45588;51.598;5.618;2023-08-12T07:58:11;12.52;;;11.40;;
59728;SDS011;45588;51.598;5.618;2023-08-12T08:00:37;10.05;;;9.25;;
59728;SDS011;45588;51.598;5.618;2023-08-12T08:03:02;11.00;;;10.10;;
59728;SDS011;45588;51.598;5.618;2023-08-12T08:05:27;10.45;;;9.45;;
59728;SDS011;45588;51.598;5.618;2023-08-12T08:07:52;10.70;;;9.80;;
59728;SDS011;45588;51.598;5.618;2023-08-12T08:10:17;10.17;;;9.37;;
59728;SDS011;45588;51.598;5.618;2023-08-12T08:12:43;9.60;;;8.87;;
59728;SDS011;45588;51.598;5.618;2023-08-12T08:15:08;8.67;;;7.97;;
59728;SDS011;45588;51.598;5.618;2023-08-12T08:17:33;9.38;;;8.48;;
59728;SDS011;45588;51.598;5.618;2023-08-12T08:19:58;8.07;;;7.37;;
59728;SDS011;45588;51.598;5.618;2023-08-12T08:22:23;7.50;;;6.90;;
59728;SDS011;45588;51.598;5.618;2023-08-12T08:24:49;8.38;;;7.68;;
59728;SDS011;45588;51.598;5.618;2023-08-12T08:27:14;9.00;;;8.17;;
59728;SDS011;45588;51.598;5.618;2023-08-12T08:29:39;9.27;;;8.40;;
59728;SDS011;45588;51.598;5.618;2023-08-12T08:32:05;7.57;;;7.03;;
59728;SDS011;45588;51.598;5.618;2023-08-12T08:34:30;7.03;;;6.43;;
59728;SDS011;45588;51.598;5.618;2023-08-12T08:36:55;6.00;;;5.40;;
59728;SDS011;45588;51.598;5.618;2023-08-12T08:39:20;5.47;;;5.03;;
59728;SDS011;45588;51.598;5.618;2023-08-12T08:41:46;6.15;;;5.55;;
59728;SDS011;45588;51.598;5.618;2023-08-12T08:44:12;6.25;;;5.82;;
59728;SDS011;45588;51.598;5.618;2023-08-12T08:46:38;6.97;;;6.47;;
59728;SDS011;45588;51.598;5.618;2023-08-12T08:49:04;8.35;;;7.68;;
59728;SDS011;45588;51.598;5.618;2023-08-12T08:51:29;9.38;;;8.57;;
59728;SDS011;45588;51.598;5.618;2023-08-12T08:53:58;9.15;;;8.35;;
59728;SDS011;45588;51.598;5.618;2023-08-12T08:56:24;8.95;;;8.15;;
59728;SDS011;45588;51.598;5.618;2023-08-12T08:58:49;10.50;;;9.68;;
59728;SDS011;45588;51.598;5.618;2023-08-12T09:01:15;10.60;;;9.73;;
59728;SDS011;45588;51.598;5.618;2023-08-12T09:03:42;11.73;;;10.65;;
59728;SDS011;45588;51.598;5.618;2023-08-12T09:06:08;10.32;;;9.52;;
59728;SDS011;45588;51.598;5.618;2023-08-12T09:08:33;11.13;;;10.23;;
59728;SDS011;45588;51.598;5.618;2023-08-12T09:10:59;10.70;;;9.90;;
59728;SDS011;45588;51.598;5.618;2023-08-12T09:13:25;11.32;;;10.52;;
59728;SDS011;45588;51.598;5.618;2023-08-12T09:15:50;11.18;;;10.15;;
59728;SDS011;45588;51.598;5.618;2023-08-12T09:18:16;10.55;;;9.75;;
59728;SDS011;45588;51.598;5.618;2023-08-12T09:20:41;11.18;;;10.38;;
59728;SDS011;45588;51.598;5.618;2023-08-12T09:23:08;9.68;;;8.85;;
59728;SDS011;45588;51.598;5.618;2023-08-12T09:25:35;10.30;;;9.55;;
59728;SDS011;45588;51.598;5.618;2023-08-12T09:28:00;8.85;;;8.15;;
59728;SDS011;45588;51.598;5.618;2023-08-12T09:30:29;9.15;;;8.45;;
59728;SDS011;45588;51.598;5.618;2023-08-12T09:33:04;9.15;;;8.45;;
59728;SDS011;45588;51.598;5.618;2023-08-12T09:35:35;8.43;;;7.78;;
59728;SDS011;45588;51.598;5.618;2023-08-12T09:38:02;7.90;;;7.30;;
59728;SDS011;45588;51.598;5.618;2023-08-12T09:40:27;6.72;;;6.22;;
59728;SDS011;45588;51.598;5.618;2023-08-12T09:42:52;7.03;;;6.43;;
59728;SDS011;45588;51.598;5.618;2023-08-12T09:45:18;7.00;;;6.40;;
59728;SDS011;45588;51.598;5.618;2023-08-12T09:47:45;7.97;;;7.10;;
59728;SDS011;45588;51.598;5.618;2023-08-12T09:50:11;6.85;;;6.28;;
59728;SDS011;45588;51.598;5.618;2023-08-12T09:52:36;5.72;;;5.28;;
59728;SDS011;45588;51.598;5.618;2023-08-12T09:55:01;5.03;;;4.50;;
59728;SDS011;45588;51.598;5.618;2023-08-12T09:57:27;4.80;;;4.40;;
59728;SDS011;45588;51.598;5.618;2023-08-12T09:59:53;4.45;;;4.15;;
59728;SDS011;45588;51.598;5.618;2023-08-12T10:02:19;4.10;;;3.80;;
59728;SDS011;45588;51.598;5.618;2023-08-12T10:04:45;6.57;;;4.80;;
59728;SDS011;45588;51.598;5.618;2023-08-12T10:07:11;4.30;;;3.90;;
59728;SDS011;45588;51.598;5.618;2023-08-12T10:09:38;4.30;;;4.00;;
59728;SDS011;45588;51.598;5.618;2023-08-12T10:12:04;5.95;;;5.45;;
59728;SDS011;45588;51.598;5.618;2023-08-12T10:14:29;7.80;;;7.05;;
59728;SDS011;45588;51.598;5.618;2023-08-12T10:16:54;7.72;;;6.95;;
59728;SDS011;45588;51.598;5.618;2023-08-12T10:19:20;7.65;;;6.95;;
59728;SDS011;45588;51.598;5.618;2023-08-12T10:21:46;7.38;;;6.78;;
59728;SDS011;45588;51.598;5.618;2023-08-12T10:24:12;7.00;;;6.35;;
59728;SDS011;45588;51.598;5.618;2023-08-12T10:26:40;6.50;;;6.00;;
59728;SDS011;45588;51.598;5.618;2023-08-12T10:29:05;8.15;;;7.35;;
59728;SDS011;45588;51.598;5.618;2023-08-12T10:31:31;7.55;;;6.90;;
59728;SDS011;45588;51.598;5.618;2023-08-12T10:33:57;6.45;;;5.93;;
59728;SDS011;45588;51.598;5.618;2023-08-12T10:36:22;5.50;;;5.00;;
59728;SDS011;45588;51.598;5.618;2023-08-12T10:38:47;5.67;;;5.17;;
59728;SDS011;45588;51.598;5.618;2023-08-12T10:43:59;8.32;;;6.75;;
59728;SDS011;45588;51.598;5.618;2023-08-12T10:46:31;7.80;;;6.95;;
59728;SDS011;45588;51.598;5.618;2023-08-12T10:48:57;7.00;;;6.30;;
59728;SDS011;45588;51.598;5.618;2023-08-12T10:51:45;8.68;;;6.10;;
59728;SDS011;45588;51.598;5.618;2023-08-12T10:54:10;7.32;;;6.53;;
59728;SDS011;45588;51.598;5.618;2023-08-12T11:02:06;8.38;;;5.30;;
59728;SDS011;45588;51.598;5.618;2023-08-12T11:04:36;8.68;;;4.53;;
59728;SDS011;45588;51.598;5.618;2023-08-12T11:07:13;6.97;;;3.17;;
59728;SDS011;45588;51.598;5.618;2023-08-12T11:09:39;5.55;;;2.60;;
59728;SDS011;45588;51.598;5.618;2023-08-12T11:12:04;5.88;;;3.22;;
59728;SDS011;45588;51.598;5.618;2023-08-12T11:14:29;9.65;;;4.03;;
59728;SDS011;45588;51.598;5.618;2023-08-12T11:16:54;7.70;;;3.63;;
59728;SDS011;45588;51.598;5.618;2023-08-12T11:19:21;10.32;;;3.58;;
59728;SDS011;45588;51.598;5.618;2023-08-12T11:21:46;9.07;;;2.90;;
59728;SDS011;45588;51.598;5.618;2023-08-12T11:24:12;9.73;;;3.45;;
59728;SDS011;45588;51.598;5.618;2023-08-12T11:26:37;7.15;;;3.03;;
59728;SDS011;45588;51.598;5.618;2023-08-12T11:29:08;9.88;;;2.90;;
59728;SDS011;45588;51.598;5.618;2023-08-12T11:31:33;8.00;;;2.85;;
59728;SDS011;45588;51.598;5.618;2023-08-12T11:33:59;9.18;;;3.08;;
59728;SDS011;45588;51.598;5.618;2023-08-12T11:36:24;6.67;;;3.20;;
59728;SDS011;45588;51.598;5.618;2023-08-12T11:38:49;11.20;;;3.60;;
59728;SDS011;45588;51.598;5.618;2023-08-12T11:41:17;9.48;;;3.33;;
59728;SDS011;45588;51.598;5.618;2023-08-12T11:43:42;7.65;;;3.00;;
59728;SDS011;45588;51.598;5.618;2023-08-12T11:46:07;6.97;;;2.73;;
59728;SDS011;45588;51.598;5.618;2023-08-12T11:48:32;7.73;;;3.20;;
59728;SDS011;45588;51.598;5.618;2023-08-12T11:50:57;6.70;;;2.55;;
59728;SDS011;45588;51.598;5.618;2023-08-12T11:53:23;9.35;;;2.75;;
59728;SDS011;45588;51.598;5.618;2023-08-12T11:55:48;8.30;;;2.90;;
59728;SDS011;45588;51.598;5.618;2023-08-12T11:58:13;10.30;;;3.03;;
59728;SDS011;45588;51.598;5.618;2023-08-12T12:00:43;7.13;;;3.05;;
59728;SDS011;45588;51.598;5.618;2023-08-12T12:03:08;11.88;;;3.60;;
59728;SDS011;45588;51.598;5.618;2023-08-12T12:05:34;8.77;;;3.13;;
59728;SDS011;45588;51.598;5.618;2023-08-12T12:07:59;9.30;;;3.45;;
59728;SDS011;45588;51.598;5.618;2023-08-12T12:10:29;10.77;;;3.38;;
59728;SDS011;45588;51.598;5.618;2023-08-12T12:12:55;10.77;;;3.67;;
59728;SDS011;45588;51.598;5.618;2023-08-12T12:15:20;10.15;;;2.92;;
59728;SDS011;45588;51.598;5.618;2023-08-12T12:17:47;14.48;;;3.60;;
59728;SDS011;45588;51.598;5.618;2023-08-12T12:20:12;10.82;;;3.78;;
59728;SDS011;45588;51.598;5.618;2023-08-12T12:22:41;9.63;;;3.20;;
59728;SDS011;45588;51.598;5.618;2023-08-12T12:25:08;10.77;;;3.67;;
59728;SDS011;45588;51.598;5.618;2023-08-12T12:27:34;10.27;;;3.22;;
59728;SDS011;45588;51.598;5.618;2023-08-12T12:30:02;11.13;;;3.78;;
59728;SDS011;45588;51.598;5.618;2023-08-12T12:32:27;10.38;;;3.63;;
59728;SDS011;45588;51.598;5.618;2023-08-12T12:34:52;9.77;;;3.67;;
59728;SDS011;45588;51.598;5.618;2023-08-12T12:37:20;14.02;;;3.83;;
59728;SDS011;45588;51.598;5.618;2023-08-12T12:39:45;11.52;;;3.92;;
59728;SDS011;45588;51.598;5.618;2023-08-12T12:42:11;9.50;;;3.47;;
59728;SDS011;45588;51.598;5.618;2023-08-12T12:44:36;11.73;;;4.38;;
59728;SDS011;45588;51.598;5.618;2023-08-12T12:47:02;13.47;;;3.90;;
59728;SDS011;45588;51.598;5.618;2023-08-12T12:49:27;11.75;;;4.38;;
59728;SDS011;45588;51.598;5.618;2023-08-12T12:51:53;14.02;;;3.85;;
59728;SDS011;45588;51.598;5.618;2023-08-12T12:54:18;16.90;;;4.00;;
59728;SDS011;45588;51.598;5.618;2023-08-12T12:56:44;10.10;;;3.83;;
59728;SDS011;45588;51.598;5.618;2023-08-12T12:59:09;16.07;;;4.90;;
59728;SDS011;45588;51.598;5.618;2023-08-12T13:01:35;15.35;;;3.65;;
59728;SDS011;45588;51.598;5.618;2023-08-12T13:04:00;11.60;;;3.58;;
59728;SDS011;45588;51.598;5.618;2023-08-12T13:06:25;10.50;;;3.73;;
59728;SDS011;45588;51.598;5.618;2023-08-12T13:08:50;12.25;;;4.15;;
59728;SDS011;45588;51.598;5.618;2023-08-12T13:11:16;11.67;;;3.90;;
59728;SDS011;45588;51.598;5.618;2023-08-12T13:13:41;13.50;;;4.50;;
59728;SDS011;45588;51.598;5.618;2023-08-12T13:16:06;10.97;;;3.90;;
59728;SDS011;45588;51.598;5.618;2023-08-12T13:18:33;12.98;;;4.28;;
59728;SDS011;45588;51.598;5.618;2023-08-12T13:20:58;8.87;;;3.50;;
59728;SDS011;45588;51.598;5.618;2023-08-12T13:23:23;16.83;;;3.83;;
59728;SDS011;45588;51.598;5.618;2023-08-12T13:25:48;11.73;;;3.60;;
59728;SDS011;45588;51.598;5.618;2023-08-12T13:28:13;13.23;;;4.40;;
59728;SDS011;45588;51.598;5.618;2023-08-12T13:30:39;14.13;;;3.90;;
59728;SDS011;45588;51.598;5.618;2023-08-12T13:33:04;11.33;;;4.47;;
59728;SDS011;45588;51.598;5.618;2023-08-12T13:35:30;15.27;;;4.22;;
59728;SDS011;45588;51.598;5.618;2023-08-12T13:37:55;10.95;;;3.97;;
59728;SDS011;45588;51.598;5.618;2023-08-12T13:40:20;11.13;;;3.95;;
59728;SDS011;45588;51.598;5.618;2023-08-12T13:42:46;8.98;;;3.63;;
59728;SDS011;45588;51.598;5.618;2023-08-12T13:45:12;11.98;;;5.13;;
59728;SDS011;45588;51.598;5.618;2023-08-12T13:47:37;13.70;;;5.00;;
59728;SDS011;45588;51.598;5.618;2023-08-12T13:50:03;10.30;;;4.55;;
59728;SDS011;45588;51.598;5.618;2023-08-12T13:52:28;11.07;;;3.83;;
59728;SDS011;45588;51.598;5.618;2023-08-12T13:54:53;10.80;;;3.87;;
59728;SDS011;45588;51.598;5.618;2023-08-12T13:57:19;12.80;;;4.03;;
59728;SDS011;45588;51.598;5.618;2023-08-12T13:59:44;12.80;;;4.03;;
59728;SDS011;45588;51.598;5.618;2023-08-12T14:02:09;12.47;;;4.23;;
59728;SDS011;45588;51.598;5.618;2023-08-12T14:04:35;9.63;;;3.72;;
59728;SDS011;45588;51.598;5.618;2023-08-12T14:07:00;12.10;;;3.83;;
59728;SDS011;45588;51.598;5.618;2023-08-12T14:09:25;11.13;;;3.43;;
59728;SDS011;45588;51.598;5.618;2023-08-12T14:11:51;10.37;;;3.33;;
59728;SDS011;45588;51.598;5.618;2023-08-12T14:14:16;9.38;;;3.50;;
59728;SDS011;45588;51.598;5.618;2023-08-12T14:16:41;12.23;;;3.80;;
59728;SDS011;45588;51.598;5.618;2023-08-12T14:19:07;11.33;;;3.90;;
59728;SDS011;45588;51.598;5.618;2023-08-12T14:21:32;11.65;;;4.07;;
59728;SDS011;45588;51.598;5.618;2023-08-12T14:23:57;14.00;;;3.83;;
59728;SDS011;45588;51.598;5.618;2023-08-12T14:26:22;11.33;;;4.37;;
59728;SDS011;45588;51.598;5.618;2023-08-12T14:28:47;8.70;;;3.67;;
59728;SDS011;45588;51.598;5.618;2023-08-12T14:31:12;10.17;;;4.07;;